Time;durP1;ratioP1;P1;durP2;ratioP2;P2;SDS_P1;SDS_P2;PMS_P1;PMS_P2;Temp;Humidity;BMP_temperature;BMP_pressure;BME280_temperature;BME280_humidity;BME280_pressure;Samples;Min_cycle;Max_cycle;Signal;HPM_P1;HPM_P2
2021/09/14 00:00:22;;;;;;;13.50;12.10;;;;;;;14.19;73.96;100357.75;5100799;28;20048;-79
2021/09/14 00:02:50;;;;;;;13.27;11.57;;;;;;;14.13;73.82;100358.28;5100470;28;20052;-79
2021/09/14 00:05:19;;;;;;;15.20;11.30;;;;;;;14.08;74.43;100350.91;5100428;28;20052;-79
2021/09/14 00:07:46;;;;;;;13.25;11.50;;;;;;;14.08;74.44;100350.09;5102401;28;20048;-79
2021/09/14 00:10:14;;;;;;;15.20;10.70;;;;;;;14.09;73.79;100335.75;5100249;28;20047;-79
2021/09/14 00:12:41;;;;;;;13.95;10.15;;;;;;;14.09;74.12;100340.50;5101002;28;20052;-79
2021/09/14 00:15:10;;;;;;;12.40;10.13;;;;;;;14.07;73.73;100337.25;5101017;28;20071;-79
2021/09/14 00:17:38;;;;;;;13.93;10.57;;;;;;;14.06;74.16;100339.22;5101149;28;20060;-79
2021/09/14 00:20:07;;;;;;;11.00;9.90;;;;;;;14.00;74.13;100337.78;5100478;28;20051;-79
2021/09/14 00:22:36;;;;;;;12.98;10.40;;;;;;;13.98;73.86;100334.50;5100437;28;20052;-79
2021/09/14 00:25:04;;;;;;;13.60;10.43;;;;;;;13.95;74.26;100335.19;5099847;28;20048;-79
2021/09/14 00:27:31;;;;;;;12.10;10.85;;;;;;;13.91;74.44;100334.25;5103555;28;20469;-79
2021/09/14 00:29:58;;;;;;;13.48;10.82;;;;;;;13.87;74.60;100324.88;5099431;28;20059;-79
2021/09/14 00:32:26;;;;;;;12.60;11.30;;;;;;;13.88;73.93;100329.31;5124619;28;20416;-79
2021/09/14 00:34:54;;;;;;;14.50;11.18;;;;;;;13.80;74.11;100331.84;5123299;28;20412;-79
2021/09/14 00:37:21;;;;;;;12.95;10.75;;;;;;;13.81;74.29;100332.66;5113955;28;20417;-79
2021/09/14 00:39:50;;;;;;;11.35;10.25;;;;;;;13.80;74.18;100337.44;5088105;28;20055;-79
2021/09/14 00:42:18;;;;;;;14.68;10.98;;;;;;;13.79;74.17;100337.78;5084451;28;20048;-79
2021/09/14 00:44:46;;;;;;;13.48;10.80;;;;;;;13.77;73.95;100326.09;5083537;28;20048;-79
2021/09/14 00:47:13;;;;;;;15.38;10.90;;;;;;;13.75;74.30;100332.06;5083395;28;20052;-79
2021/09/14 00:49:41;;;;;;;14.68;11.02;;;;;;;13.77;74.24;100321.34;5083206;28;20052;-79
2021/09/14 00:52:09;;;;;;;12.88;11.32;;;;;;;13.78;74.36;100322.97;5093530;28;20056;-79
2021/09/14 00:54:37;;;;;;;12.52;11.05;;;;;;;13.74;74.29;100324.78;5101746;28;20056;-79
2021/09/14 00:57:06;;;;;;;12.02;10.13;;;;;;;13.71;74.16;100321.84;5100783;28;20056;-81
2021/09/14 00:59:34;;;;;;;12.57;10.60;;;;;;;13.67;74.03;100315.28;5102003;28;20040;-81
2021/09/14 01:02:02;;;;;;;11.43;10.00;;;;;;;13.66;74.24;100320.06;5100587;28;20055;-80
2021/09/14 01:04:30;;;;;;;13.07;10.30;;;;;;;13.63;73.98;100317.97;5102315;28;20048;-80
2021/09/14 01:06:58;;;;;;;12.75;11.38;;;;;;;13.62;73.96;100321.91;5101682;28;20404;-80
2021/09/14 01:09:26;;;;;;;13.35;10.68;;;;;;;13.60;74.44;100318.63;5101140;28;20052;-79
2021/09/14 01:11:54;;;;;;;13.57;10.68;;;;;;;13.58;74.31;100318.16;5101556;28;20382;-79
2021/09/14 01:14:23;;;;;;;13.73;11.23;;;;;;;13.60;74.13;100318.63;5101876;28;20048;-79
2021/09/14 01:16:51;;;;;;;13.57;10.70;;;;;;;13.55;74.61;100316.84;5101710;28;20059;-79
2021/09/14 01:19:18;;;;;;;12.15;10.90;;;;;;;13.53;74.48;100318.34;5102120;28;20791;-79
2021/09/14 01:21:45;;;;;;;14.15;10.98;;;;;;;13.50;74.23;100317.06;5101825;28;20044;-79
2021/09/14 01:24:14;;;;;;;12.68;11.18;;;;;;;13.51;74.13;100315.06;5101330;28;20044;-79
2021/09/14 01:26:42;;;;;;;13.00;11.45;;;;;;;13.49;74.76;100309.81;5100850;28;20063;-80
2021/09/14 01:30:10;;;;;;;15.27;10.93;;;;;;;13.48;75.00;100307.34;5101127;28;20048;-80
2021/09/14 01:31:59;;;;;;;13.20;11.48;;;;;;;13.47;74.88;100302.91;5101018;28;20492;-79
2021/09/14 01:34:27;;;;;;;13.68;12.25;;;;;;;13.47;75.14;100303.72;5101116;28;20063;-79
2021/09/14 01:36:54;;;;;;;14.10;12.63;;;;;;;13.42;74.97;100303.94;5101407;28;20389;-79
2021/09/14 01:39:23;;;;;;;12.98;11.15;;;;;;;13.44;74.78;100306.38;5100973;28;20052;-79
2021/09/14 01:41:51;;;;;;;13.38;11.65;;;;;;;13.46;74.76;100315.25;5100808;28;20048;-79
2021/09/14 01:44:18;;;;;;;13.85;11.85;;;;;;;13.48;74.92;100307.34;5100892;28;20063;-80
2021/09/14 01:46:46;;;;;;;13.43;11.55;;;;;;;13.47;74.75;100314.91;5101080;28;20052;-80
2021/09/14 01:49:13;;;;;;;14.13;11.52;;;;;;;13.47;74.87;100303.72;5100483;28;20055;-80
2021/09/14 01:51:40;;;;;;;12.85;11.55;;;;;;;13.45;74.80;100306.03;5101125;28;20052;-80
2021/09/14 01:54:08;;;;;;;13.35;11.70;;;;;;;13.44;74.75;100304.41;5101361;28;20066;-79
2021/09/14 01:56:37;;;;;;;12.55;11.23;;;;;;;13.43;74.51;100305.56;5100662;28;20048;-79
2021/09/14 01:59:05;;;;;;;16.83;12.63;;;;;;;13.42;74.45;100308.69;5100183;28;20052;-79
2021/09/14 02:01:35;;;;;;;14.90;12.80;;;;;;;13.38;74.45;100303.78;5100956;28;20070;-80
2021/09/14 02:04:07;;;;;;;14.77;11.63;;;;;;;13.34;74.72;100310.41;5100440;28;20059;-80
2021/09/14 02:40:11;;;;;;;17.60;14.00;;;;;;;12.97;75.11;100291.25;5097156;28;20074;-80
2021/09/14 02:42:57;;;;;;;19.05;14.00;;;;;;;12.95;74.80;100287.97;5097648;28;20059;-80
2021/09/14 02:59:26;;;;;;;16.25;13.43;;;;;;;12.89;75.23;100299.69;5065561;28;20070;-80
2021/09/14 03:01:54;;;;;;;14.95;13.02;;;;;;;12.91;74.95;100298.19;5097920;28;20056;-79
2021/09/14 03:04:22;;;;;;;14.75;13.07;;;;;;;12.88;74.98;100295.25;5097086;28;20048;-79
2021/09/14 03:06:49;;;;;;;15.65;12.02;;;;;;;12.85;75.16;100295.91;5097437;28;20319;-80
2021/09/14 03:09:16;;;;;;;16.13;13.00;;;;;;;12.83;75.25;100298.22;5099261;28;20048;-79
2021/09/14 03:11:44;;;;;;;16.38;12.73;;;;;;;12.82;75.13;100289.03;5097538;28;20048;-79
2021/09/14 03:14:11;;;;;;;18.35;13.45;;;;;;;12.80;75.27;100292.16;5097430;28;20048;-79
2021/09/14 03:16:39;;;;;;;15.75;13.00;;;;;;;12.80;75.26;100288.53;5097758;28;20052;-79
2021/09/14 03:19:08;;;;;;;15.20;13.48;;;;;;;12.78;75.26;100288.06;5097178;28;20048;-80
2021/09/14 03:21:35;;;;;;;15.70;13.03;;;;;;;12.83;75.29;100282.31;5098484;28;20052;-80
2021/09/14 03:24:03;;;;;;;16.40;13.20;;;;;;;12.86;75.25;100283.59;5097709;28;20470;-80
2021/09/14 03:26:30;;;;;;;19.63;14.15;;;;;;;12.75;75.93;100286.75;5097189;28;20052;-80
2021/09/14 03:28:58;;;;;;;17.98;13.73;;;;;;;12.71;76.76;100279.38;5097342;28;20047;-80
2021/09/14 03:31:25;;;;;;;17.85;13.50;;;;;;;12.81;76.19;100270.63;5097208;28;20067;-80
2021/09/14 03:33:53;;;;;;;18.27;13.82;;;;;;;12.82;75.88;100263.88;5097572;28;20055;-80
2021/09/14 03:36:22;;;;;;;16.85;14.98;;;;;;;12.85;75.33;100277.19;5096341;28;20056;-80
2021/09/14 03:38:49;;;;;;;18.27;14.88;;;;;;;12.79;76.16;100272.94;5096907;28;20159;-80
2021/09/14 03:41:17;;;;;;;19.35;15.13;;;;;;;12.78;76.24;100276.88;5096355;28;20051;-80
2021/09/14 03:43:44;;;;;;;15.40;13.23;;;;;;;12.84;75.72;100275.53;5097180;28;20409;-80
2021/09/14 03:46:11;;;;;;;16.73;14.23;;;;;;;12.87;75.88;100263.69;5098335;28;20055;-80
2021/09/14 03:49:45;;;;;;;15.88;13.38;;;;;;;12.89;75.81;100266.97;5099886;28;20055;-79
2021/09/14 04:10:12;;;;;;;15.68;11.90;;;;;;;12.78;75.36;100254.50;5107905;28;20058;-79
2021/09/14 04:13:16;;;;;;;14.13;12.18;;;;;;;12.77;74.73;100259.28;5083093;28;20048;-80
2021/09/14 04:15:43;;;;;;;15.98;13.20;;;;;;;12.72;75.33;100261.44;5099656;28;20052;-80
2021/09/14 04:18:11;;;;;;;13.85;12.40;;;;;;;12.73;75.19;100251.91;5099373;28;20052;-80
2021/09/14 04:20:38;;;;;;;15.88;12.95;;;;;;;12.77;75.06;100247.28;5099050;28;20134;-80
2021/09/14 04:23:07;;;;;;;13.75;11.88;;;;;;;12.77;75.17;100252.88;5099865;28;20048;-80
2021/09/14 04:25:35;;;;;;;14.03;12.53;;;;;;;12.66;75.59;100249.66;5099707;28;20044;-80
2021/09/14 04:28:02;;;;;;;13.98;11.68;;;;;;;12.74;75.54;100259.13;5099949;28;20055;-80
2021/09/14 04:30:29;;;;;;;15.88;12.32;;;;;;;12.74;74.88;100264.72;5100209;28;20130;-80
2021/09/14 04:32:57;;;;;;;13.10;11.65;;;;;;;12.77;74.99;100264.06;5100180;28;20059;-80
2021/09/14 04:35:24;;;;;;;14.93;12.23;;;;;;;12.74;74.79;100254.34;5099576;28;20052;-80
2021/09/14 04:37:52;;;;;;;15.52;12.43;;;;;;;12.73;74.84;100251.91;5098906;28;20044;-80
2021/09/14 04:40:20;;;;;;;16.33;12.55;;;;;;;12.75;75.16;100250.41;5100619;28;20051;-80
2021/09/14 04:42:48;;;;;;;13.57;12.17;;;;;;;12.74;74.82;100247.94;5101144;28;20048;-80
2021/09/14 04:45:15;;;;;;;14.52;12.57;;;;;;;12.75;74.69;100244.84;5100644;28;20052;-80
2021/09/14 04:47:43;;;;;;;14.40;12.00;;;;;;;12.73;74.51;100246.31;5100671;28;20052;-80
2021/09/14 04:50:11;;;;;;;14.18;12.43;;;;;;;12.64;75.47;100248.31;5100123;28;20052;-80
2021/09/14 04:52:41;;;;;;;14.57;12.13;;;;;;;12.65;74.98;100245.19;5099012;28;20509;-80
2021/09/14 04:55:09;;;;;;;14.05;12.15;;;;;;;12.67;74.19;100236.47;5098193;28;20060;-80
2021/09/14 04:57:38;;;;;;;14.95;11.65;;;;;;;12.69;74.52;100236.97;5117924;28;20148;-81
2021/09/14 05:00:07;;;;;;;14.27;12.38;;;;;;;12.55;75.42;100234.38;5119537;28;20052;-80
2021/09/14 05:02:34;;;;;;;13.18;11.45;;;;;;;12.65;74.63;100230.41;5107332;28;20423;-80
2021/09/14 05:05:02;;;;;;;12.73;11.38;;;;;;;12.66;74.98;100223.66;5100697;28;20052;-80
2021/09/14 05:07:31;;;;;;;13.25;11.68;;;;;;;12.67;74.18;100219.72;5099421;28;20056;-80
2021/09/14 05:09:59;;;;;;;17.83;12.35;;;;;;;12.73;73.88;100223.97;5099679;28;20055;-80
2021/09/14 05:12:26;;;;;;;13.60;12.15;;;;;;;12.71;73.92;100209.50;5097440;28;20481;-81
2021/09/14 05:14:55;;;;;;;13.05;11.27;;;;;;;12.71;74.27;100210.31;5102471;28;20047;-81
2021/09/14 05:17:22;;;;;;;17.87;13.03;;;;;;;12.72;74.27;100202.75;5103622;28;20055;-80
2021/09/14 05:19:51;;;;;;;14.82;12.60;;;;;;;12.70;73.97;100200.28;5103134;28;20362;-80
2021/09/14 05:22:21;;;;;;;13.95;11.60;;;;;;;12.72;74.09;100195.19;5103143;28;20052;-80
2021/09/14 05:24:48;;;;;;;13.07;11.57;;;;;;;12.68;74.46;100197.03;5100750;28;20051;-79
2021/09/14 05:27:18;;;;;;;13.45;11.18;;;;;;;12.75;73.72;100199.31;5101465;28;20079;-81
2021/09/14 05:29:46;;;;;;;11.98;10.45;;;;;;;12.77;73.86;100202.59;5101865;28;20044;-81
2021/09/14 05:32:17;;;;;;;13.45;10.75;;;;;;;12.82;73.48;100207.16;5100579;28;20644;-79
2021/09/14 05:34:44;;;;;;;14.73;10.98;;;;;;;12.84;73.31;100208.44;5102392;28;20048;-79
2021/09/14 05:37:12;;;;;;;11.93;10.43;;;;;;;12.90;73.07;100209.91;5102588;28;20048;-79
2021/09/14 05:39:39;;;;;;;12.43;10.75;;;;;;;12.92;72.85;100204.00;5101904;28;20052;-80
2021/09/14 05:42:07;;;;;;;13.70;11.65;;;;;;;12.97;73.23;100206.56;5102375;28;20052;-80
2021/09/14 05:44:35;;;;;;;24.35;17.50;;;;;;;12.97;72.90;100201.78;5100822;28;20052;-79
2021/09/14 05:47:03;;;;;;;13.85;10.85;;;;;;;13.06;72.70;100196.19;5101107;28;20048;-79
2021/09/14 05:49:32;;;;;;;11.40;10.20;;;;;;;13.17;72.06;100197.41;5100307;28;20052;-79
2021/09/14 05:52:00;;;;;;;12.13;9.70;;;;;;;13.25;71.20;100197.69;5101158;28;20062;-79
2021/09/14 05:54:28;;;;;;;11.80;10.07;;;;;;;13.28;71.26;100195.03;5100581;28;20056;-79
2021/09/14 05:56:56;;;;;;;11.93;10.15;;;;;;;13.30;71.36;100192.75;5113420;28;20515;-79
2021/09/14 05:59:24;;;;;;;13.15;11.20;;;;;;;13.40;71.25;100197.94;5122286;28;20052;-80
2021/09/14 06:01:51;;;;;;;14.52;10.43;;;;;;;13.46;71.67;100201.38;5111863;28;20048;-79
2021/09/14 06:04:19;;;;;;;12.40;10.13;;;;;;;13.54;71.34;100202.44;5098720;28;20059;-79
2021/09/14 06:06:47;;;;;;;11.35;10.13;;;;;;;13.61;71.16;100202.75;5101010;28;20059;-79
2021/09/14 06:09:15;;;;;;;11.23;9.93;;;;;;;13.66;71.38;100205.31;5098181;28;20347;-79
2021/09/14 06:11:42;;;;;;;12.02;10.73;;;;;;;13.08;74.18;100201.41;5098072;28;20512;-77
2021/09/14 06:14:10;;;;;;;13.60;11.50;;;;;;;12.52;77.08;100212.72;5092152;28;20048;-77
2021/09/14 06:16:37;;;;;;;12.35;11.02;;;;;;;12.92;75.76;100209.56;5096560;28;20044;-77
2021/09/14 06:19:04;;;;;;;10.65;9.38;;;;;;;13.35;74.44;100211.31;5094137;28;20522;-77
2021/09/14 06:21:37;;;;;;;11.48;9.85;;;;;;;13.57;74.14;100212.97;5088952;28;20500;-77
2021/09/14 06:24:06;;;;;;;10.88;9.60;;;;;;;13.60;73.62;100209.47;5101103;28;20032;-79
2021/09/14 06:26:34;;;;;;;;;;;;;;;13.92;72.96;100207.06;5102676;28;20040;-80
2021/09/14 06:29:01;;;;;;;15.48;10.85;;;;;;;14.24;71.20;100218.63;5095125;28;19920;-79
2021/09/14 06:31:29;;;;;;;14.35;11.60;;;;;;;14.49;70.83;100214.72;5099031;28;20048;-79
2021/09/14 06:33:56;;;;;;;15.75;11.98;;;;;;;14.57;70.79;100227.03;5099578;28;20060;-80
2021/09/14 06:36:24;;;;;;;14.75;13.23;;;;;;;14.76;70.61;100220.84;5100173;28;20051;-78
2021/09/14 06:38:51;;;;;;;16.02;14.32;;;;;;;15.04;69.80;100223.00;5100297;28;20048;-78
2021/09/14 06:41:21;;;;;;;15.52;13.55;;;;;;;15.23;69.67;100226.84;5098346;28;20059;-78
2021/09/14 06:43:49;;;;;;;14.00;12.45;;;;;;;15.45;68.92;100221.88;5099403;28;20055;-78
2021/09/14 06:46:17;;;;;;;16.15;11.90;;;;;;;15.63;68.24;100219.63;5097918;28;20052;-78
2021/09/14 06:48:44;;;;;;;14.77;11.98;;;;;;;15.76;67.94;100224.06;5097876;28;20062;-79
2021/09/14 06:51:11;;;;;;;13.63;12.23;;;;;;;15.94;67.27;100235.03;5100373;28;20060;-79
2021/09/14 06:53:39;;;;;;;15.95;12.38;;;;;;;16.12;66.74;100225.09;5097943;28;20092;-79
2021/09/14 06:56:06;;;;;;;15.77;12.02;;;;;;;16.20;66.90;100224.13;5090829;28;20043;-78
2021/09/14 06:58:36;;;;;;;13.13;11.73;;;;;;;16.43;66.15;100221.53;5112796;28;20086;-78
2021/09/14 07:01:05;;;;;;;12.77;11.30;;;;;;;16.66;65.96;100212.50;5089597;28;20071;-82
2021/09/14 07:03:33;;;;;;;12.57;11.25;;;;;;;17.10;65.01;100215.25;5094525;28;21548;-80
2021/09/14 07:06:01;;;;;;;12.07;10.02;;;;;;;17.81;62.12;100210.41;5095494;28;20060;-81
2021/09/14 07:08:28;;;;;;;10.43;9.43;;;;;;;18.76;59.64;100211.03;5097058;28;20048;-80
2021/09/14 07:10:55;;;;;;;10.40;9.20;;;;;;;19.41;57.34;100205.25;5094896;28;20523;-79
2021/09/14 07:13:23;;;;;;;10.43;9.20;;;;;;;20.36;55.22;100203.22;5095142;28;20050;-80
2021/09/14 07:15:52;;;;;;;13.30;8.30;;;;;;;21.57;52.04;100197.00;5096278;28;20059;-79
2021/09/14 07:18:19;;;;;;;9.23;8.32;;;;;;;22.70;49.10;100192.13;5096880;28;20063;-79
2021/09/14 07:20:46;;;;;;;11.23;8.60;;;;;;;23.65;46.59;100190.84;5094404;28;20689;-79
2021/09/14 07:23:14;;;;;;;12.10;8.65;;;;;;;24.70;43.32;100189.13;5097567;28;20059;-79
2021/09/14 07:25:43;;;;;;;9.57;8.20;;;;;;;25.52;41.61;100191.22;5095821;28;20567;-80
2021/09/14 07:28:11;;;;;;;10.25;8.20;;;;;;;26.17;40.25;100193.34;5097028;28;20048;-80
2021/09/14 07:30:39;;;;;;;8.90;8.10;;;;;;;26.86;39.24;100190.31;5093994;28;20067;-81
2021/09/14 07:33:07;;;;;;;11.05;8.40;;;;;;;27.10;38.02;100186.19;5087449;28;20496;-80
2021/09/14 07:35:35;;;;;;;9.82;7.80;;;;;;;27.39;37.38;100180.00;5097923;28;20043;-80
2021/09/14 07:38:03;;;;;;;10.05;8.85;;;;;;;27.25;37.31;100188.81;5094967;28;20481;-81
2021/09/14 07:40:31;;;;;;;12.07;9.25;;;;;;;27.19;37.52;100179.09;5094924;28;20056;-81
2021/09/14 07:43:01;;;;;;;9.57;8.57;;;;;;;27.18;37.58;100188.94;5098323;28;20048;-80
2021/09/14 07:45:29;;;;;;;10.15;8.70;;;;;;;27.14;37.56;100184.06;5098927;28;20052;-80
2021/09/14 07:47:57;;;;;;;9.88;8.98;;;;;;;27.23;37.57;100179.88;5099663;28;20062;-79
2021/09/14 07:50:32;;;;;;;9.30;8.40;;;;;;;27.57;36.47;100181.69;5094414;28;20182;-81
2021/09/14 07:52:59;;;;;;;9.90;8.90;;;;;;;27.82;36.41;100181.19;5098182;28;20056;-80
2021/09/14 07:55:27;;;;;;;9.25;8.35;;;;;;;27.57;36.89;100182.50;5101841;28;20056;-81
2021/09/14 07:57:55;;;;;;;10.85;9.73;;;;;;;27.62;36.81;100178.34;5105749;28;20378;-81
2021/09/14 08:00:22;;;;;;;11.00;9.20;;;;;;;27.73;36.66;100184.63;5104786;28;20059;-81
2021/09/14 08:02:56;;;;;;;9.38;8.38;;;;;;;27.92;36.75;100177.31;5102111;28;20359;-82
2021/09/14 08:05:24;;;;;;;9.00;8.10;;;;;;;28.30;35.39;100186.28;5100114;28;20048;-80
2021/09/14 08:07:53;;;;;;;11.32;8.57;;;;;;;28.96;34.77;100177.81;5099273;28;20059;-81
2021/09/14 08:10:21;;;;;;;8.90;8.02;;;;;;;29.60;33.41;100180.22;5101540;28;20052;-80
2021/09/14 08:12:48;;;;;;;9.35;8.30;;;;;;;30.37;32.52;100174.75;5100145;28;20047;-82
2021/09/14 08:15:16;;;;;;;10.48;8.55;;;;;;;30.55;32.43;100175.78;5100424;28;20060;-83
2021/09/14 08:17:43;;;;;;;8.93;8.02;;;;;;;31.28;31.06;100168.44;5099113;28;20063;-84
2021/09/14 08:20:11;;;;;;;8.73;7.97;;;;;;;31.73;30.75;100165.16;5102209;28;20052;-83
2021/09/14 08:22:38;;;;;;;8.50;7.60;;;;;;;32.33;29.81;100160.41;5098629;28;20056;-83
2021/09/14 08:25:08;;;;;;;9.02;6.95;;;;;;;32.93;29.21;100153.47;5104073;28;20040;-84
2021/09/14 08:27:36;;;;;;;6.28;5.68;;;;;;;33.47;28.66;100149.03;5096908;28;20059;-84
2021/09/14 08:30:04;;;;;;;5.05;4.65;;;;;;;34.58;27.49;100145.91;5103515;28;20051;-82
2021/09/14 08:32:32;;;;;;;;;;;;;;;34.92;26.86;100141.75;5102530;28;20056;-81
2021/09/14 08:34:59;;;;;;;6.05;5.13;;;;;;;35.55;26.25;100147.56;5101220;28;20403;-82
2021/09/14 08:37:27;;;;;;;5.60;4.80;;;;;;;35.85;25.78;100144.72;5105497;28;20048;-80
2021/09/14 08:39:55;;;;;;;7.07;5.70;;;;;;;36.12;25.48;100145.72;5106512;28;20045;-82
2021/09/14 08:42:24;;;;;;;6.70;4.75;;;;;;;36.08;25.69;100145.94;5092365;28;20063;-81
2021/09/14 08:44:52;;;;;;;6.90;5.50;;;;;;;36.21;25.84;100142.75;5096028;28;20052;-81
2021/09/14 08:47:22;;;;;;;5.55;5.00;;;;;;;36.75;25.01;100145.47;5109378;28;20518;-82
2021/09/14 08:49:50;;;;;;;5.53;4.78;;;;;;;36.81;25.12;100148.44;5104763;28;20053;-82
2021/09/14 08:52:18;;;;;;;5.80;5.30;;;;;;;36.97;25.21;100154.47;5109667;28;20143;-83
2021/09/14 08:54:46;;;;;;;5.80;5.20;;;;;;;37.10;25.79;100141.75;5110222;28;20497;-82
2021/09/14 08:57:17;;;;;;;5.80;5.20;;;;;;;37.05;25.43;100134.53;5110578;28;20050;-82
2021/09/14 08:59:47;;;;;;;6.55;5.15;;;;;;;37.10;25.48;100135.94;5089549;28;20056;-82
2021/09/14 09:02:18;;;;;;;6.20;5.60;;;;;;;36.95;25.83;100135.97;5101534;28;20055;-83
2021/09/14 09:04:59;;;;;;;6.65;5.38;;;;;;;36.68;26.15;100140.06;5108706;28;20056;-81
2021/09/14 09:07:37;;;;;;;5.95;5.10;;;;;;;36.71;26.05;100139.88;5103373;28;20051;-82
2021/09/14 09:10:09;;;;;;;6.22;5.63;;;;;;;36.45;26.44;100138.91;5103356;28;20488;-82
2021/09/14 09:12:40;;;;;;;6.00;5.40;;;;;;;37.06;25.24;100136.13;5105301;28;20048;-83
2021/09/14 09:15:21;;;;;;;6.45;5.25;;;;;;;37.91;24.86;100140.84;5101542;28;20061;-83
2021/09/14 09:18:26;;;;;;;5.80;5.20;;;;;;;39.22;23.81;100139.72;5090466;28;20058;-81
2021/09/14 09:21:04;;;;;;;6.78;4.80;;;;;;;40.14;22.09;100143.16;5108287;28;20059;-82
2021/09/14 09:23:32;;;;;;;5.57;4.53;;;;;;;40.92;21.73;100139.38;5103860;28;20052;-81
2021/09/14 09:26:10;;;;;;;5.20;4.15;;;;;;;42.04;19.92;100130.59;5092489;28;20052;-82
2021/09/14 09:28:37;;;;;;;5.53;4.28;;;;;;;42.38;19.44;100126.06;5110976;28;20044;-82
2021/09/14 09:31:12;;;;;;;5.45;4.30;;;;;;;42.32;19.51;100128.22;5106580;28;20400;-81
2021/09/14 09:33:39;;;;;;;5.15;4.15;;;;;;;43.32;18.75;100123.97;5109306;28;20067;-82
2021/09/14 09:36:09;;;;;;;5.18;4.55;;;;;;;43.47;18.19;100127.25;5104879;28;20044;-81
2021/09/14 09:39:07;;;;;;;5.03;4.45;;;;;;;44.09;17.80;100128.47;5106281;28;20512;-82
2021/09/14 09:41:38;;;;;;;6.07;4.50;;;;;;;44.59;17.00;100135.63;5102049;28;20067;-80
2021/09/14 09:44:08;;;;;;;6.60;4.60;;;;;;;44.90;16.52;100142.81;5102085;28;20055;-82
2021/09/14 09:46:38;;;;;;;4.68;3.90;;;;;;;45.34;16.12;100145.38;5109246;28;20056;-82
2021/09/14 09:49:07;;;;;;;4.55;4.13;;;;;;;45.71;15.60;100137.63;5096798;28;20048;-82
2021/09/14 09:51:35;;;;;;;5.88;3.83;;;;;;;45.95;15.95;100134.34;5105992;28;20056;-82
2021/09/14 09:54:03;;;;;;;3.83;3.40;;;;;;;46.40;16.12;100132.47;5103820;28;20044;-83
2021/09/14 09:56:32;;;;;;;4.32;3.92;;;;;;;46.54;15.38;100128.06;5109350;28;20058;-83
2021/09/14 09:59:01;;;;;;;6.05;3.85;;;;;;;47.02;15.01;100124.88;5105010;28;20054;-82
2021/09/14 10:01:29;;;;;;;5.57;3.85;;;;;;;47.33;14.64;100116.19;5105450;28;20044;-81
2021/09/14 10:04:06;;;;;;;5.45;4.15;;;;;;;47.57;14.54;100115.72;5101556;28;20059;-80
2021/09/14 10:06:39;;;;;;;6.50;3.70;;;;;;;47.50;14.13;100107.56;5100163;28;20059;-82
2021/09/14 10:09:08;;;;;;;4.72;3.60;;;;;;;47.91;13.83;100111.66;5108958;28;20401;-84
2021/09/14 10:11:37;;;;;;;5.25;4.00;;;;;;;47.27;14.81;100103.75;5105426;28;20056;-80
2021/09/14 10:14:08;;;;;;;4.60;3.70;;;;;;;47.42;14.63;100112.69;5107848;28;20473;-80
2021/09/14 10:16:44;;;;;;;5.32;3.83;;;;;;;47.62;14.23;100107.25;5102571;28;20044;-78
2021/09/14 10:19:16;;;;;;;4.63;3.40;;;;;;;46.96;14.94;100107.34;5101135;28;20058;-80
2021/09/14 10:21:46;;;;;;;5.05;3.50;;;;;;;45.96;15.80;100100.59;5106161;28;20488;-80
2021/09/14 10:24:22;;;;;;;4.20;3.47;;;;;;;45.72;15.98;100109.78;5108575;28;20048;-79
2021/09/14 10:26:50;;;;;;;4.47;3.15;;;;;;;44.14;17.43;100107.03;5110807;28;20052;-79
2021/09/14 10:29:19;;;;;;;4.28;3.05;;;;;;;42.54;18.38;100114.75;5103577;28;20049;-81
2021/09/14 10:31:47;;;;;;;4.18;3.20;;;;;;;41.10;19.92;100117.53;5091726;28;20048;-79
2021/09/14 10:34:16;;;;;;;6.35;3.58;;;;;;;40.67;20.95;100108.34;5100396;28;20052;-78
2021/09/14 10:37:00;;;;;;;5.15;4.20;;;;;;;40.80;20.97;100113.66;5108659;28;20048;-78
2021/09/14 10:39:31;;;;;;;5.68;4.07;;;;;;;41.69;20.02;100108.78;5100198;28;20052;-78
2021/09/14 10:41:58;;;;;;;5.53;3.80;;;;;;;42.65;18.52;100108.78;5094222;28;20048;-78
2021/09/14 10:44:28;;;;;;;5.00;3.58;;;;;;;43.78;17.98;100102.25;5094517;28;20071;-78
2021/09/14 10:47:08;;;;;;;5.00;3.80;;;;;;;44.46;16.60;100091.53;5099738;28;20052;-79
2021/09/14 10:49:51;;;;;;;4.13;3.40;;;;;;;45.63;16.73;100096.31;5093103;28;20056;-79
2021/09/14 10:52:32;;;;;;;4.32;3.78;;;;;;;46.31;15.05;100077.00;5098510;28;20050;-79
2021/09/14 10:54:59;;;;;;;4.00;3.40;;;;;;;46.08;16.03;100083.47;5110311;28;21405;-79
2021/09/14 10:57:33;;;;;;;4.40;3.03;;;;;;;46.18;16.07;100078.66;5098497;28;20051;-79
2021/09/14 11:00:05;;;;;;;3.92;3.53;;;;;;;46.51;14.54;100078.31;5105953;28;20054;-79
2021/09/14 11:02:32;;;;;;;6.15;3.60;;;;;;;47.36;14.01;100079.63;5102002;28;20053;-78
2021/09/14 11:05:02;;;;;;;4.55;3.70;;;;;;;48.37;13.00;100075.47;5104496;28;20048;-79
2021/09/14 11:07:31;;;;;;;4.25;3.25;;;;;;;49.09;12.17;100073.38;5109166;28;20048;-79
2021/09/14 11:10:00;;;;;;;3.38;3.08;;;;;;;48.43;12.97;100072.31;5106024;28;20480;-80
2021/09/14 11:12:30;;;;;;;3.17;2.78;;;;;;;48.33;13.62;100072.13;5111671;28;20062;-80
2021/09/14 11:15:02;;;;;;;3.42;2.67;;;;;;;47.85;13.64;100071.88;5102674;28;20052;-80
2021/09/14 11:17:33;;;;;;;4.13;2.85;;;;;;;46.88;15.16;100059.31;5104688;28;20048;-80
2021/09/14 11:20:13;;;;;;;3.83;3.03;;;;;;;47.25;13.76;100065.22;5109112;28;20043;-81
2021/09/14 11:22:42;;;;;;;3.63;2.90;;;;;;;46.88;14.43;100062.28;5117122;28;20054;-85
2021/09/14 11:25:19;;;;;;;3.15;2.75;;;;;;;46.32;15.18;100058.72;5113066;28;20042;-83
2021/09/14 11:27:57;;;;;;;5.70;2.97;;;;;;;45.54;15.63;100071.09;5112839;28;20407;-83
2021/09/14 11:30:25;;;;;;;4.85;2.80;;;;;;;44.57;16.40;100073.72;5111022;28;20032;-83
2021/09/14 11:32:53;;;;;;;3.70;2.78;;;;;;;43.76;17.46;100083.63;5103807;28;20036;-83
2021/09/14 11:35:23;;;;;;;4.68;2.83;;;;;;;43.34;17.90;100080.25;5113803;28;20048;-83
2021/09/14 11:37:58;;;;;;;3.80;3.22;;;;;;;43.55;17.29;100074.59;5109901;28;20047;-83
2021/09/14 11:40:27;;;;;;;3.72;3.38;;;;;;;44.23;16.69;100068.44;5113410;28;20052;-83
2021/09/14 11:42:55;;;;;;;4.05;3.20;;;;;;;45.51;15.81;100063.44;5112637;28;20058;-82
2021/09/14 11:45:24;;;;;;;4.22;3.20;;;;;;;46.23;15.12;100062.19;5109392;28;20048;-83
2021/09/14 11:47:52;;;;;;;3.92;2.90;;;;;;;46.08;14.95;100067.97;5100124;28;20044;-82
2021/09/14 11:50:27;;;;;;;;;;;;;;;45.68;15.59;100068.16;5108779;28;20067;-84
2021/09/14 11:53:05;;;;;;;4.70;2.92;;;;;;;46.12;16.40;100059.56;5106633;28;19920;-83
2021/09/14 11:55:33;;;;;;;3.05;2.80;;;;;;;46.90;14.64;100061.69;5108508;28;20048;-83
2021/09/14 11:58:01;;;;;;;;;;;;;;;47.05;14.68;100061.75;5109204;28;20051;-83
2021/09/14 12:00:36;;;;;;;3.60;2.92;;;;;;;48.02;13.79;100053.59;5108084;28;19920;-83
2021/09/14 12:03:04;;;;;;;4.18;3.03;;;;;;;47.32;14.04;100046.75;5104646;28;20048;-84
2021/09/14 12:05:34;;;;;;;3.20;2.90;;;;;;;46.82;14.47;100046.13;5103270;28;20063;-85
2021/09/14 12:08:08;;;;;;;3.47;3.10;;;;;;;46.11;15.29;100044.03;5106553;28;20054;-85
2021/09/14 12:10:47;;;;;;;4.68;2.90;;;;;;;46.28;15.51;100045.72;5107749;28;20056;-84
2021/09/14 12:13:16;;;;;;;5.47;3.20;;;;;;;47.13;14.79;100050.00;5106078;28;20060;-85
2021/09/14 12:15:45;;;;;;;4.05;3.35;;;;;;;48.72;12.92;100041.16;5101716;28;20087;-86
2021/09/14 12:18:15;;;;;;;4.20;3.03;;;;;;;49.73;12.72;100047.41;5103451;28;20058;-85
2021/09/14 12:20:44;;;;;;;4.38;3.22;;;;;;;49.33;12.33;100039.31;5102163;28;20381;-86
2021/09/14 12:23:13;;;;;;;3.88;2.72;;;;;;;48.04;13.48;100030.19;5084506;28;20052;-86
2021/09/14 12:25:44;;;;;;;4.88;2.97;;;;;;;47.88;13.33;100033.09;5096839;28;20036;-86
2021/09/14 12:28:11;;;;;;;3.45;3.15;;;;;;;48.09;13.42;100026.22;5101481;28;20048;-86
2021/09/14 12:30:41;;;;;;;3.35;2.92;;;;;;;49.24;12.83;100031.09;5104322;28;20048;-86
2021/09/14 12:33:09;;;;;;;3.80;2.78;;;;;;;49.84;11.97;100035.09;5108142;28;20059;-85